Time;durP1;ratioP1;P1;durP2;ratioP2;P2;SDS_P1;SDS_P2;PMS_P1;PMS_P2;Temp;Humidity;BMP_temperature;BMP_pressure;BME280_temperature;BME280_humidity;BME280_pressure;Samples;Min_cycle;Max_cycle;Signal;HPM_P1;HPM_P2
2023/07/15 00:01:47;;;;;;;;;18.00;15.00;;;;;19.49;100.00;99708.97;6287294;20;2831538;-53
2023/07/15 00:04:15;;;;;;;;;16.50;16.50;;;;;19.50;100.00;99708.78;6288467;20;2826426;-51
2023/07/15 00:06:44;;;;;;;;;16.00;16.00;;;;;19.38;100.00;99712.75;6288528;20;2833794;-53
2023/07/15 00:09:11;;;;;;;;;15.50;15.50;;;;;19.68;100.00;99717.06;6288602;20;2492007;-54
2023/07/15 00:11:45;;;;;;;;;15.00;15.00;;;;;19.55;100.00;99710.22;6290684;20;2491915;-53
2023/07/15 00:14:22;;;;;;;;;14.67;14.67;;;;;19.46;100.00;99707.41;6289611;20;3540275;-50
2023/07/15 00:16:51;;;;;;;;;14.67;13.67;;;;;19.28;100.00;99717.38;6286133;20;3533665;-49
2023/07/15 00:19:19;;;;;;;;;16.00;15.33;;;;;19.17;100.00;99720.25;6289184;20;3550259;-52
2023/07/15 00:21:48;;;;;;;;;15.00;15.00;;;;;19.11;100.00;99712.69;6288017;20;3539843;-49
2023/07/15 00:24:16;;;;;;;;;17.50;16.00;;;;;18.94;100.00;99715.19;6289074;20;2484059;-53
2023/07/15 00:26:47;;;;;;;;;15.00;15.00;;;;;19.36;100.00;99714.75;6286234;20;2816061;-51
2023/07/15 00:29:16;;;;;;;;;18.00;18.00;;;;;19.49;100.00;99718.00;6288815;20;2827488;-53
2023/07/15 00:31:45;;;;;;;;;18.67;18.33;;;;;19.24;100.00;99716.78;6288767;20;3564880;-49
2023/07/15 00:34:13;;;;;;;;;16.00;16.00;;;;;19.11;100.00;99709.97;6286275;20;2825434;-50
2023/07/15 00:36:41;;;;;;;;;22.50;19.50;;;;;18.89;100.00;99717.50;6285580;20;2831551;-48
2023/07/15 00:39:09;;;;;;;;;17.00;15.00;;;;;19.11;100.00;99718.13;6287465;20;2483650;-52
2023/07/15 00:41:37;;;;;;;;;20.00;20.00;;;;;19.26;100.00;99719.38;6288066;20;2831751;-50
2023/07/15 00:44:14;;;;;;;;;18.00;18.00;;;;;19.01;100.00;99715.44;6287598;20;2844149;-52
2023/07/15 00:47:05;;;;;;;;;17.00;17.00;;;;;19.14;100.00;99712.41;6288166;20;3575527;-51
2023/07/15 00:49:35;;;;;;;;;17.67;17.33;;;;;19.10;100.00;99708.28;6290781;20;3562826;-55
2023/07/15 00:52:09;;;;;;;;;17.00;17.00;;;;;19.00;100.00;99708.28;6285613;20;2825332;-50
2023/07/15 00:54:44;;;;;;;;;16.50;16.50;;;;;19.04;100.00;99705.13;6289270;20;2824315;-47
2023/07/15 00:57:16;;;;;;;;;18.50;18.50;;;;;19.03;100.00;99703.41;6287726;20;2832788;-53
2023/07/15 00:59:45;;;;;;;;;21.00;19.00;;;;;18.87;100.00;99708.63;6286880;20;2834787;-49
2023/07/15 01:02:15;;;;;;;;;19.67;19.00;;;;;19.06;100.00;99703.13;6289241;20;3573280;-51
2023/07/15 01:04:44;;;;;;;;;22.33;20.00;;;;;18.82;100.00;99708.19;6320231;20;3576437;-51
2023/07/15 01:07:11;;;;;;;;;15.00;14.00;;;;;18.84;100.00;99703.47;6277427;20;2483639;-51
2023/07/15 01:09:40;;;;;;;;;20.00;18.67;;;;;18.88;100.00;99706.75;6287030;20;2822277;-52
2023/07/15 01:12:09;;;;;;;;;16.00;16.00;;;;;18.78;100.00;99704.06;6317119;20;2825375;-49
2023/07/15 01:14:37;;;;;;;;;15.50;15.50;;;;;18.67;100.00;99705.06;6287419;20;2821305;-51
2023/07/15 01:17:05;;;;;;;;;17.50;17.50;;;;;18.53;100.00;99695.47;6285192;20;2831978;-54
2023/07/15 01:19:34;;;;;;;;;15.50;15.50;;;;;18.49;100.00;99693.22;6287449;20;2819291;-56
2023/07/15 01:22:03;;;;;;;;;14.67;14.67;;;;;18.52;100.00;99704.66;6290468;20;3546563;-49
2023/07/15 01:24:31;;;;;;;;;21.00;19.00;;;;;18.56;100.00;99700.66;6318195;20;3557618;-50
2023/07/15 01:27:08;;;;;;;;;16.67;16.67;;;;;18.61;100.00;99703.75;6315685;20;3557948;-51
2023/07/15 01:29:36;;;;;;;;;20.00;19.50;;;;;18.49;100.00;99704.09;6285247;20;2827361;-51
2023/07/15 01:32:05;;;;;;;;;18.00;16.00;;;;;18.31;100.00;99703.94;6286444;20;2819139;-53
2023/07/15 01:34:33;;;;;;;;;21.50;20.50;;;;;18.31;100.00;99701.22;6287068;20;2835727;-48
2023/07/15 01:37:03;;;;;;;;;23.00;21.50;;;;;18.41;100.00;99702.94;6283757;20;2844171;-54
2023/07/15 01:39:31;;;;;;;;;15.50;15.50;;;;;18.17;100.00;99695.22;6285090;20;2815981;-51
2023/07/15 01:42:00;;;;;;;;;19.67;19.67;;;;;18.23;100.00;99704.66;6283152;20;2844131;-50
2023/07/15 01:44:29;;;;;;;;;18.00;18.00;;;;;17.99;100.00;99695.06;6319587;20;3569005;-53
2023/07/15 01:46:57;;;;;;;;;18.33;17.33;;;;;17.86;100.00;99685.47;6288051;20;3575263;-50
2023/07/15 01:49:25;;;;;;;;;21.33;21.33;;;;;18.05;100.00;99688.22;6283533;20;3588086;-53
2023/07/15 01:51:53;;;;;;;;;18.67;18.33;;;;;17.83;100.00;99691.22;6287014;20;3572593;-53
2023/07/15 01:54:22;;;;;;;;;18.00;18.00;;;;;17.75;100.00;99695.44;6283223;20;2822409;-51
2023/07/15 01:56:50;;;;;;;;;21.00;18.50;;;;;17.93;100.00;99701.09;6285275;20;2836879;-51
2023/07/15 01:59:18;;;;;;;;;17.33;17.33;;;;;18.08;100.00;99695.22;6286778;20;3555455;-49
2023/07/15 02:01:47;;;;;;;;;18.33;17.00;;;;;17.96;100.00;99692.66;6317421;20;3567161;-55
2023/07/15 02:04:16;;;;;;;;;17.50;17.50;;;;;17.81;100.00;99695.91;6281373;20;2806483;-52
2023/07/15 02:06:44;;;;;;;;;19.67;19.67;;;;;17.81;100.00;99698.63;6290240;20;3573313;-53
2023/07/15 02:09:12;;;;;;;;;22.67;19.00;;;;;17.80;100.00;99697.78;6288110;20;3578863;-51
2023/07/15 02:11:40;;;;;;;;;20.67;19.00;;;;;17.60;100.00;99701.41;6285528;20;3579418;-56
2023/07/15 02:14:10;;;;;;;;;22.33;20.00;;;;;17.56;100.00;99695.38;6281437;20;3571081;-53
2023/07/15 02:16:38;;;;;;;;;20.50;19.00;;;;;17.60;100.00;99695.97;6316222;20;2833733;-51
2023/07/15 02:19:07;;;;;;;;;19.00;19.00;;;;;17.76;100.00;99697.16;6286726;20;2836862;-48
2023/07/15 02:21:35;;;;;;;;;21.50;18.00;;;;;17.59;100.00;99703.28;6285750;20;2832665;-51
2023/07/15 02:24:04;;;;;;;;;19.00;18.00;;;;;17.52;100.00;99699.38;6284517;20;2831649;-51
2023/07/15 02:26:32;;;;;;;;;16.00;15.50;;;;;17.45;100.00;99693.63;6284426;20;2826382;-50
2023/07/15 02:29:00;;;;;;;;;17.67;16.33;;;;;17.45;100.00;99698.22;6281816;20;3555459;-56
2023/07/15 02:31:29;;;;;;;;;22.00;19.67;;;;;17.52;100.00;99699.38;6318007;20;3572275;-53
2023/07/15 02:33:57;;;;;;;;;22.33;21.00;;;;;17.60;100.00;99701.41;6286498;20;3558704;-53
2023/07/15 02:36:25;;;;;;;;;23.00;21.00;;;;;17.86;100.00;99701.78;6317999;20;3589996;-50
2023/07/15 02:38:54;;;;;;;;;21.00;20.00;;;;;17.65;100.00;99700.00;6287565;20;3588328;-50
2023/07/15 02:41:22;;;;;;;;;24.00;20.33;;;;;17.76;100.00;99699.88;6287793;20;3583651;-49
2023/07/15 02:43:50;;;;;;;;;19.50;18.00;;;;;17.53;100.00;99695.66;6282931;20;2834643;-52
2023/07/15 02:46:18;;;;;;;;;18.67;17.33;;;;;17.81;100.00;99696.75;6287012;20;3575291;-48
2023/07/15 02:48:47;;;;;;;;;18.67;18.00;;;;;17.99;100.00;99702.38;6285461;20;3570052;-50
2023/07/15 02:51:15;;;;;;;;;20.00;18.00;;;;;17.78;100.00;99700.59;6288082;20;3556683;-50
2023/07/15 02:53:44;;;;;;;;;22.00;21.33;;;;;17.64;100.00;99702.84;6319329;20;3580494;-53
2023/07/15 02:56:12;;;;;;;;;21.00;21.00;;;;;17.60;100.00;99707.69;6285381;20;3582587;-51
2023/07/15 02:58:41;;;;;;;;;21.33;21.33;;;;;17.59;100.00;99706.00;6283599;20;2845273;-51
2023/07/15 03:01:09;;;;;;;;;23.00;22.67;;;;;17.80;100.00;99713.19;6318491;20;3588888;-53
2023/07/15 03:03:38;;;;;;;;;24.33;23.00;;;;;17.76;100.00;99709.88;6287857;20;3596081;-53
2023/07/15 03:06:06;;;;;;;;;18.67;18.00;;;;;17.68;100.00;99705.13;6288306;20;3579527;-53
2023/07/15 03:08:35;;;;;;;;;24.33;20.67;;;;;17.80;100.00;99708.66;6280924;20;2850289;-49
2023/07/15 03:11:07;;;;;;;;;22.67;22.67;;;;;17.72;100.00;99712.03;6314946;20;3583686;-51
2023/07/15 03:13:35;;;;;;;;;22.33;21.33;;;;;17.78;100.00;99708.72;6284938;20;3594049;-51
2023/07/15 03:16:04;;;;;;;;;22.67;22.00;;;;;17.74;100.00;99709.16;6286989;20;3578407;-48
2023/07/15 03:18:31;;;;;;;;;25.00;22.00;;;;;17.58;100.00;99709.69;6288171;20;2650308;-51
2023/07/15 03:20:59;;;;;;;;;24.67;22.67;;;;;17.84;100.00;99714.63;6286218;20;3595008;-52
2023/07/15 03:23:28;;;;;;;;;21.00;20.33;;;;;17.96;100.00;99716.25;6283967;20;3581492;-54
2023/07/15 03:25:56;;;;;;;;;25.67;22.00;;;;;17.99;100.00;99710.53;6318253;20;3590987;-50
2023/07/15 03:28:25;;;;;;;;;24.67;22.00;;;;;18.07;100.00;99715.25;6286808;20;3602394;-53
2023/07/15 03:30:53;;;;;;;;;22.00;20.33;;;;;17.83;100.00;99712.94;6285053;20;3577369;-50
2023/07/15 03:33:21;;;;;;;;;24.00;24.00;;;;;17.97;100.00;99720.66;6287476;20;3600264;-51
2023/07/15 03:35:49;;;;;;;;;22.00;21.00;;;;;17.88;100.00;99721.53;6282157;20;2797337;-52
2023/07/15 03:38:18;;;;;;;;;23.00;22.00;;;;;18.05;100.00;99718.09;6285947;20;3582538;-55
2023/07/15 03:40:49;;;;;;;;;27.00;26.33;;;;;17.92;100.00;99723.78;6287417;20;3600342;-49
2023/07/15 03:43:17;;;;;;;;;20.67;19.33;;;;;18.04;100.00;99727.25;6282675;20;3580604;-51
2023/07/15 03:45:46;;;;;;;;;23.00;22.33;;;;;18.05;100.00;99728.97;6287985;20;3590382;-51
2023/07/15 03:48:15;;;;;;;;;23.67;22.67;;;;;18.03;100.00;99728.25;6286800;20;3589848;-54
2023/07/15 03:50:45;;;;;;;;;22.00;22.00;;;;;18.21;100.00;99729.25;6282879;20;3581688;-50
2023/07/15 03:53:16;;;;;;;;;23.67;22.67;;;;;18.15;100.00;99729.84;6283464;20;3586732;-51
2023/07/15 03:55:44;;;;;;;;;18.33;18.33;;;;;18.30;100.00;99732.13;6284962;20;3558733;-53
2023/07/15 03:58:12;;;;;;;;;21.00;21.00;;;;;18.36;100.00;99724.25;6282875;20;3589913;-51
2023/07/15 04:00:41;;;;;;;;;23.33;21.67;;;;;18.32;100.00;99730.13;6284370;20;3596076;-53
2023/07/15 04:03:09;;;;;;;;;25.00;25.00;;;;;18.46;100.00;99724.28;6285887;20;3599236;-52
2023/07/15 04:05:38;;;;;;;;;22.00;20.67;;;;;18.49;100.00;99726.69;6284951;20;3570058;-51
2023/07/15 04:08:06;;;;;;;;;25.33;24.33;;;;;18.47;100.00;99734.13;6283116;20;3604466;-53
2023/07/15 04:10:33;;;;;;;;;148.00;140.00;;;;;18.67;100.00;99729.53;6273533;20;1943070;-55
2023/07/15 04:13:01;;;;;;;;;228.00;214.00;;;;;18.54;100.00;99728.97;6274212;20;1960678;-53
2023/07/15 04:15:32;;;;;;;;;91.75;88.75;;;;;18.78;100.00;99725.84;6279809;20;3654414;-48
2023/07/15 04:18:00;;;;;;;;;48.00;41.00;;;;;18.84;100.00;99736.97;6314607;20;3588220;-53
2023/07/15 04:20:28;;;;;;;;;66.67;53.33;;;;;18.71;100.00;99730.94;6283309;20;3622135;-51
2023/07/15 04:22:57;;;;;;;;;64.00;52.67;;;;;18.92;100.00;99733.53;6283409;20;3616958;-47
2023/07/15 04:25:26;;;;;;;;;232.50;219.75;;;;;18.89;100.00;99728.38;6283901;20;4492045;-53
2023/07/15 04:27:57;;;;;;;;;146.13;142.13;;;;;18.96;100.00;99729.50;6273597;20;3694125;-52
2023/07/15 04:30:26;;;;;;;;;72.50;57.50;;;;;19.13;100.00;99722.44;6281842;20;3636980;-53
2023/07/15 04:32:54;;;;;;;;;35.00;30.33;;;;;19.05;100.00;99727.75;6315202;20;3607701;-48
2023/07/15 04:35:23;;;;;;;;;30.00;27.00;;;;;19.37;100.00;99713.72;6284271;20;3583668;-53
2023/07/15 04:37:51;;;;;;;;;24.00;23.33;;;;;19.37;100.00;99719.19;6283528;20;3597309;-55
2023/07/15 04:40:19;;;;;;;;;24.00;24.00;;;;;19.49;100.00;99714.41;6282827;20;3589793;-48
2023/07/15 04:42:47;;;;;;;;;28.67;25.33;;;;;19.32;100.00;99707.03;6284879;20;3590978;-47
2023/07/15 04:45:16;;;;;;;;;22.67;22.67;;;;;19.32;100.00;99717.91;6289870;20;3600298;-54
2023/07/15 04:47:45;;;;;;;;;27.50;24.00;;;;;20.07;98.87;99708.63;6288431;20;3608634;-51
2023/07/15 04:50:13;;;;;;;;;21.33;21.33;;;;;19.91;98.76;99708.47;6321008;20;3583617;-52
2023/07/15 04:52:41;;;;;;;;;22.67;21.67;;;;;20.17;97.51;99714.00;6287471;20;3575348;-53
2023/07/15 04:55:10;;;;;;;;;23.33;20.67;;;;;20.34;96.49;99715.88;6288713;20;3575292;-54
2023/07/15 04:57:38;;;;;;;;;24.67;24.67;;;;;20.19;98.01;99711.97;6287943;20;3600272;-53
2023/07/15 05:00:13;;;;;;;;;21.00;17.33;;;;;20.25;97.97;99725.00;6287349;20;3554596;-49
2023/07/15 05:02:42;;;;;;;;;21.67;17.33;;;;;20.69;97.29;99721.47;6285161;20;2843109;-50
2023/07/15 05:05:11;;;;;;;;;23.33;23.33;;;;;21.50;89.74;99732.06;6320078;20;3587760;-51
2023/07/15 05:07:40;;;;;;;;;19.00;19.00;;;;;21.77;90.29;99744.66;6281600;20;3572337;-49
2023/07/15 05:10:25;;;;;;;;;20.00;20.00;;;;;22.67;82.83;99746.72;6284310;20;2833631;-54
2023/07/15 05:12:54;;;;;;;;;21.00;21.00;;;;;21.36;90.10;99738.13;6313833;20;3579716;-54
2023/07/15 05:15:23;;;;;;;;;22.33;21.33;;;;;21.62;91.04;99738.97;6282533;20;3598187;-53
2023/07/15 05:17:51;;;;;;;;;22.00;22.00;;;;;22.65;84.87;99746.06;6318303;20;3583577;-53
2023/07/15 05:20:19;;;;;;;;;20.00;19.00;;;;;22.09;87.41;99745.75;6290837;20;3553609;-51
2023/07/15 05:22:48;;;;;;;;;21.67;21.00;;;;;21.67;89.92;99744.81;6287813;20;3573589;-47
2023/07/15 05:25:16;;;;;;;;;19.00;19.00;;;;;21.60;90.65;99738.28;6291698;20;3571113;-51
2023/07/15 05:27:44;;;;;;;;;19.67;18.33;;;;;21.48;91.22;99736.84;6284679;20;3561730;-51
2023/07/15 05:30:13;;;;;;;;;23.67;20.67;;;;;21.73;88.74;99739.69;6284829;20;3574238;-51
2023/07/15 05:32:41;;;;;;;;;20.00;18.33;;;;;21.86;88.03;99740.94;6287876;20;3562868;-53
2023/07/15 05:35:09;;;;;;;;;20.33;19.33;;;;;22.09;89.22;99740.28;6284202;20;3571195;-54
2023/07/15 05:37:37;;;;;;;;;24.00;21.00;;;;;22.29;86.30;99735.41;6285170;20;3580464;-52
2023/07/15 05:40:09;;;;;;;;;22.33;19.33;;;;;22.41;85.46;99738.66;6286847;20;3573234;-51
2023/07/15 05:42:41;;;;;;;;;19.33;19.00;;;;;22.47;85.46;99738.00;6286143;20;3570047;-50
2023/07/15 05:45:11;;;;;;;;;21.00;21.00;;;;;22.37;84.93;99738.16;6283828;20;3459601;-47
2023/07/15 05:47:39;;;;;;;;;24.00;23.00;;;;;22.72;83.43;99745.22;6311833;20;3589950;-50
2023/07/15 05:50:09;;;;;;;;;21.00;18.33;;;;;22.86;83.91;99751.03;6287635;20;3563818;-48
2023/07/15 05:52:38;;;;;;;;;22.33;20.33;;;;;22.66;83.02;99755.97;6311631;20;3567961;-43
2023/07/15 05:55:08;;;;;;;;;20.33;20.33;;;;;22.69;82.75;99759.22;6312193;20;3577391;-47
2023/07/15 05:57:36;;;;;;;;;18.33;18.33;;;;;23.02;83.65;99753.78;6311271;20;3568082;-46
2023/07/15 06:00:08;;;;;;;;;21.00;18.00;;;;;22.82;82.91;99753.22;6279757;20;3566121;-45
2023/07/15 06:02:38;;;;;;;;;18.00;18.00;;;;;23.26;82.75;99761.09;6282756;20;3560779;-46
2023/07/15 06:05:07;;;;;;;;;16.33;15.33;;;;;23.36;80.38;99769.13;6281442;20;3555541;-45
2023/07/15 06:07:35;;;;;;;;;21.00;19.67;;;;;23.32;80.90;99774.06;6280987;20;3577474;-45
2023/07/15 06:10:04;;;;;;;;;21.00;18.67;;;;;23.63;81.07;99762.34;6285162;20;3573761;-46
2023/07/15 06:12:32;;;;;;;;;19.67;19.00;;;;;23.58;80.02;99775.72;6283258;20;3566911;-47
2023/07/15 06:15:01;;;;;;;;;20.67;20.33;;;;;23.99;78.79;99770.13;6284916;20;3579607;-45
2023/07/15 06:17:29;;;;;;;;;21.00;18.00;;;;;24.25;78.88;99775.25;6282991;20;2832531;-46
2023/07/15 06:19:57;;;;;;;;;19.00;19.00;;;;;24.15;78.68;99772.78;6285023;20;2829461;-44
2023/07/15 06:22:25;;;;;;;;;19.67;19.67;;;;;24.40;77.52;99770.72;6284390;20;3575388;-44
2023/07/15 06:24:54;;;;;;;;;18.67;17.33;;;;;24.20;79.96;99772.25;6285519;20;3554415;-44
2023/07/15 06:27:22;;;;;;;;;18.00;17.00;;;;;24.40;78.39;99772.59;6279524;20;2822192;-46
2023/07/15 06:29:50;;;;;;;;;17.67;17.67;;;;;24.73;77.29;99778.75;6284726;20;3571105;-46
2023/07/15 06:32:18;;;;;;;;;20.00;19.00;;;;;24.67;77.71;99774.84;6281644;20;3555662;-45
2023/07/15 06:34:49;;;;;;;;;16.33;16.33;;;;;24.91;77.40;99778.44;6285122;20;3571075;-46
2023/07/15 06:37:17;;;;;;;;;17.67;17.00;;;;;25.47;75.88;99784.44;6284723;20;3569032;-47
2023/07/15 06:39:45;;;;;;;;;21.33;20.00;;;;;25.73;73.80;99777.63;6285948;20;3575303;-47
2023/07/15 06:42:13;;;;;;;;;17.00;15.33;;;;;25.60;73.80;99775.53;6285821;20;3555563;-43
2023/07/15 06:44:42;;;;;;;;;18.00;18.00;;;;;26.28;72.04;99788.09;6312870;20;3556599;-46
2023/07/15 06:47:12;;;;;;;;;16.33;16.00;;;;;26.08;72.37;99787.00;6315198;20;3556605;-44
2023/07/15 06:49:40;;;;;;;;;15.50;15.50;;;;;26.48;71.03;99790.19;6317516;20;2820071;-44
2023/07/15 06:52:08;;;;;;;;;18.33;18.00;;;;;26.60;71.24;99796.09;6283956;20;3569120;-43
2023/07/15 06:54:37;;;;;;;;;19.00;14.67;;;;;26.84;70.66;99798.44;6278349;20;3558716;-46
2023/07/15 06:57:05;;;;;;;;;17.33;16.33;;;;;27.32;69.27;99806.94;6282166;20;3570142;-45
2023/07/15 06:59:33;;;;;;;;;18.67;18.00;;;;;27.50;68.55;99803.69;6289028;20;3566923;-46
2023/07/15 07:02:01;;;;;;;;;17.33;17.33;;;;;27.79;65.97;99807.25;6287452;20;3564182;-44
2023/07/15 07:04:29;;;;;;;;;18.00;18.00;;;;;27.58;66.57;99808.19;6287261;20;3565893;-46
2023/07/15 07:06:58;;;;;;;;;17.00;15.33;;;;;27.79;64.71;99801.75;6285224;20;3555597;-46
2023/07/15 07:09:26;;;;;;;;;15.33;15.33;;;;;27.99;66.74;99807.41;6285686;20;3540952;-50
2023/07/15 07:11:55;;;;;;;;;15.33;14.00;;;;;28.38;63.78;99797.56;6309340;20;3545244;-48
2023/07/15 07:14:24;;;;;;;;;19.67;17.67;;;;;28.64;64.54;99802.34;6315041;20;3572166;-46
2023/07/15 07:16:52;;;;;;;;;14.67;14.00;;;;;28.69;61.83;99807.25;6316479;20;3530507;-46
2023/07/15 07:19:20;;;;;;;;;16.33;15.00;;;;;28.50;61.88;99797.84;6318838;20;3553410;-47
2023/07/15 07:21:48;;;;;;;;;22.00;21.00;;;;;29.16;59.21;99799.88;6286519;20;3585680;-44
2023/07/15 07:24:17;;;;;;;;;18.67;18.67;;;;;29.29;61.59;99808.19;6283953;20;2820196;-43
2023/07/15 07:26:47;;;;;;;;;19.67;18.33;;;;;29.26;59.88;99808.63;6313085;20;3577369;-46
2023/07/15 07:29:16;;;;;;;;;15.67;15.67;;;;;28.80;60.63;99804.69;6280395;20;3556647;-47
2023/07/15 07:31:44;;;;;;;;;17.00;17.00;;;;;29.18;59.32;99814.38;6285286;20;3581498;-47
2023/07/15 07:34:13;;;;;;;;;17.67;15.67;;;;;29.53;58.01;99807.50;6280709;20;3557694;-46
2023/07/15 07:36:41;;;;;;;;;14.00;13.00;;;;;29.28;58.06;99803.69;6313272;20;3514850;-45
2023/07/15 07:39:10;;;;;;;;;21.00;21.00;;;;;29.68;57.56;99812.84;6313266;20;3567964;-46
2023/07/15 07:41:40;;;;;;;;;19.00;16.00;;;;;29.66;57.71;99809.44;6308603;20;3563035;-48
2023/07/15 07:44:11;;;;;;;;;17.00;17.00;;;;;30.10;57.30;99818.91;6284501;20;3564916;-45
2023/07/15 07:46:39;;;;;;;;;15.50;15.50;;;;;29.85;57.30;99813.22;6278751;20;2823151;-44
2023/07/15 07:49:07;;;;;;;;;19.33;16.67;;;;;29.93;57.12;99821.28;6284501;20;3563832;-45
2023/07/15 07:51:35;;;;;;;;;16.00;16.00;;;;;30.13;55.25;99814.84;6280298;20;2833859;-44
2023/07/15 07:54:04;;;;;;;;;15.00;15.00;;;;;30.32;55.88;99824.16;6281023;20;2681505;-46
2023/07/15 07:56:32;;;;;;;;;131.33;125.33;;;;;30.38;55.47;99828.81;6304462;20;1940244;-47
2023/07/15 07:59:02;;;;;;;;;15.33;15.33;;;;;30.31;56.93;99826.09;6314364;20;3546166;-45
2023/07/15 08:01:31;;;;;;;;;14.00;14.00;;;;;30.49;56.99;99819.84;6282990;20;3527304;-50
2023/07/15 08:04:00;;;;;;;;;15.67;15.67;;;;;30.70;56.11;99826.97;6310731;20;3550307;-47
2023/07/15 08:06:29;;;;;;;;;21.67;21.67;;;;;30.96;54.32;99827.88;6313565;20;3576376;-45
2023/07/15 08:08:58;;;;;;;;;23.00;23.00;;;;;30.89;54.35;99829.88;6283539;20;3594071;-46
2023/07/15 08:11:26;;;;;;;;;19.00;18.00;;;;;31.22;55.08;99829.59;6310136;20;2708747;-47
2023/07/15 08:13:54;;;;;;;;;16.00;16.00;;;;;30.76;54.27;99825.22;6282972;20;2704447;-55
2023/07/15 08:16:32;;;;;;;;;12.67;12.33;;;;;31.42;54.78;99824.75;6312727;20;3514841;-54
2023/07/15 08:19:04;;;;;;;;;16.67;15.00;;;;;31.80;52.57;99820.94;6312507;20;3555590;-55
2023/07/15 08:21:33;;;;;;;;;16.67;16.67;;;;;31.60;53.20;99821.19;6313154;20;3565888;-56
2023/07/15 08:24:04;;;;;;;;;22.57;20.86;;;;;31.39;54.49;99816.06;6331861;20;3571110;-54
2023/07/15 08:26:32;;;;;;;;;15.67;15.67;;;;;31.41;55.26;99820.28;6284383;20;3551312;-48
2023/07/15 08:29:02;;;;;;;;;19.67;16.67;;;;;31.17;56.39;99821.94;6286386;20;3567014;-56
2023/07/15 08:31:30;;;;;;;;;15.67;15.67;;;;;31.33;54.62;99822.47;6285951;20;3547323;-50
2023/07/15 08:34:00;;;;;;;;;16.67;16.00;;;;;31.11;55.97;99816.47;6286868;20;2822281;-55
2023/07/15 08:36:28;;;;;;;;;16.00;16.00;;;;;31.15;55.08;99818.56;6320365;20;3555718;-53
2023/07/15 08:38:56;;;;;;;;;18.00;17.67;;;;;31.89;54.57;99819.59;6287320;20;3575282;-53
2023/07/15 08:41:24;;;;;;;;;12.00;12.00;;;;;31.34;56.38;99822.25;6289516;20;3539931;-49
2023/07/15 08:43:53;;;;;;;;;18.00;16.33;;;;;31.48;53.66;99818.28;6310441;20;3555493;-51
2023/07/15 08:46:26;;;;;;;;;16.33;16.33;;;;;31.36;54.60;99817.31;6318404;20;3554533;-54
2023/07/15 08:48:58;;;;;;;;;17.00;17.00;;;;;31.42;55.18;99821.97;6289932;20;3573171;-52
2023/07/15 08:51:31;;;;;;;;;20.33;19.00;;;;;31.36;53.88;99813.66;6291231;20;3577388;-54
2023/07/15 08:54:02;;;;;;;;;20.00;19.00;;;;;31.50;53.57;99812.53;6286248;20;3564828;-48
2023/07/15 08:56:34;;;;;;;;;19.50;18.50;;;;;31.59;53.63;99808.34;6286642;20;2830513;-57
2023/07/15 08:59:06;;;;;;;;;14.00;14.00;;;;;31.50;53.98;99809.75;6288289;20;3541935;-54
2023/07/15 09:01:35;;;;;;;;;18.00;18.00;;;;;31.23;55.58;99815.50;6290107;20;3557552;-52
2023/07/15 09:04:04;;;;;;;;;18.67;18.33;;;;;30.53;58.64;99806.38;6283959;20;3563896;-53
2023/07/15 09:06:33;;;;;;;;;17.33;16.67;;;;;31.93;54.20;99809.72;6286957;20;3559641;-54
2023/07/15 09:09:02;;;;;;;;;15.67;15.67;;;;;32.38;53.24;99814.09;6314919;20;3554491;-52
2023/07/15 09:11:40;;;;;;;;;16.00;16.00;;;;;31.48;51.96;99811.91;6314051;20;3563798;-55
2023/07/15 09:14:17;;;;;;;;;13.67;13.67;;;;;31.82;51.50;99817.97;6319554;20;3542008;-54
2023/07/15 09:16:46;;;;;;;;;16.50;15.00;;;;;32.11;50.52;99822.78;6284372;20;2815937;-52
2023/07/15 09:19:14;;;;;;;;;16.67;15.33;;;;;32.24;50.93;99816.19;6285980;20;3553515;-52
2023/07/15 09:21:54;;;;;;;;;16.33;16.00;;;;;31.90;51.64;99823.22;6282234;20;3550281;-55
2023/07/15 09:24:22;;;;;;;;;13.00;13.00;;;;;32.45;51.35;99814.03;6286335;20;3542079;-54
2023/07/15 09:26:54;;;;;;;;;16.33;16.33;;;;;32.14;50.70;99816.75;6313410;20;2823344;-54
2023/07/15 09:29:22;;;;;;;;;9.33;9.00;;;;;32.89;49.49;99821.09;6315681;20;3483718;-54
2023/07/15 09:31:51;;;;;;;;;16.00;14.33;;;;;32.44;49.79;99815.97;6318780;20;3548257;-55
2023/07/15 09:34:27;;;;;;;;;17.00;14.00;;;;;32.90;49.92;99820.00;6286630;20;3554423;-56
2023/07/15 09:36:55;;;;;;;;;15.00;15.00;;;;;33.14;49.37;99818.16;6281726;20;2810710;-54
2023/07/15 09:39:23;;;;;;;;;13.00;13.00;;;;;32.60;50.53;99824.72;6286800;20;3525811;-51
2023/07/15 09:42:05;;;;;;;;;13.00;13.00;;;;;32.68;49.46;99821.66;6317851;20;3535776;-52
2023/07/15 09:44:43;;;;;;;;;12.33;12.33;;;;;32.63;48.59;99824.28;6318256;20;3523282;-53
2023/07/15 09:47:12;;;;;;;;;15.00;13.00;;;;;32.38;49.02;99827.16;6313502;20;2483708;-50
2023/07/15 09:49:40;;;;;;;;;13.00;13.00;;;;;32.41;50.03;99821.13;6313762;20;2810871;-56
2023/07/15 09:52:08;;;;;;;;;11.00;10.00;;;;;32.25;49.28;99820.66;6287458;20;3505499;-55
2023/07/15 09:54:38;;;;;;;;;12.67;11.00;;;;;32.47;49.48;99809.97;6317744;20;3522296;-52
2023/07/15 09:57:15;;;;;;;;;11.67;11.67;;;;;32.04;49.99;99810.88;6310447;20;3532550;-53
2023/07/15 09:59:48;;;;;;;;;10.00;9.33;;;;;32.87;49.01;99814.94;6313503;20;3486745;-49
2023/07/15 10:02:32;;;;;;;;;12.00;11.00;;;;;32.95;49.22;99810.97;6317723;20;3505463;-54
2023/07/15 10:05:05;;;;;;;;;14.50;14.00;;;;;33.19;47.88;99811.88;6314266;20;2807617;-53
2023/07/15 10:07:33;;;;;;;;;13.33;11.00;;;;;32.56;49.44;99816.88;6280776;20;2483745;-56
2023/07/15 10:10:02;;;;;;;;;11.00;11.00;;;;;31.37;52.03;99812.63;6317768;20;3513830;-52
2023/07/15 10:12:33;;;;;;;;;15.00;13.00;;;;;30.74;54.23;99811.56;6315605;20;3528441;-53
2023/07/15 10:15:02;;;;;;;;;11.00;11.00;;;;;31.81;50.67;99813.47;6315036;20;3525287;-52
2023/07/15 10:17:36;;;;;;;;;11.33;11.33;;;;;32.72;50.74;99803.38;6282217;20;2784751;-55
2023/07/15 10:20:17;;;;;;;;;13.00;13.00;;;;;32.26;49.08;99807.66;6316460;20;3532585;-56
2023/07/15 10:22:49;;;;;;;;;12.67;12.67;;;;;32.32;48.71;99806.69;6317534;20;3539901;-54
2023/07/15 10:25:18;;;;;;;;;12.00;12.00;;;;;32.93;48.05;99804.78;6280264;20;3508824;-58
2023/07/15 10:27:47;;;;;;;;;13.00;12.00;;;;;32.79;47.85;99802.22;6282407;20;3530555;-51
2023/07/15 10:30:27;;;;;;;;;12.50;12.50;;;;;32.85;47.76;99807.91;6312871;20;2794094;-55
2023/07/15 10:32:59;;;;;;;;;11.00;11.00;;;;;32.62;47.66;99798.38;6280241;20;2789901;-51
2023/07/15 10:35:48;;;;;;;;;11.33;11.00;;;;;33.14;47.25;99797.84;6285372;20;3520039;-53
2023/07/15 10:38:26;;;;;;;;;11.33;10.67;;;;;32.86;46.89;99796.56;6317846;20;3513344;-52
2023/07/15 10:41:04;;;;;;;;;12.33;11.00;;;;;30.91;50.83;99786.94;6316250;20;3518194;-54
2023/07/15 10:43:33;;;;;;;;;13.67;13.00;;;;;32.00;49.94;99789.38;6309973;20;3540264;-54
2023/07/15 10:46:04;;;;;;;;;10.67;10.67;;;;;31.74;50.35;99782.16;6287356;20;2782794;-53
2023/07/15 10:48:33;;;;;;;;;11.00;11.00;;;;;32.89;47.94;99789.63;6313686;20;3514933;-55
2023/07/15 10:51:08;;;;;;;;;9.67;9.67;;;;;32.98;47.66;99788.22;6278095;20;3495184;-55
2023/07/15 10:53:37;;;;;;;;;11.00;11.00;;;;;32.74;47.09;99788.16;6318012;20;2483639;-55
2023/07/15 10:56:11;;;;;;;;;12.33;10.00;;;;;31.57;48.62;99781.91;6311885;20;3513825;-52
2023/07/15 10:58:41;;;;;;;;;12.00;12.00;;;;;32.17;50.05;99792.38;6287586;20;2483709;-55
2023/07/15 11:01:12;;;;;;;;;11.33;11.33;;;;;31.61;50.72;99789.56;6317817;20;3503388;-50
2023/07/15 11:03:42;;;;;;;;;12.00;12.00;;;;;30.90;50.92;99793.56;6315796;20;3526341;-54
2023/07/15 11:06:11;;;;;;;;;13.33;13.33;;;;;31.49;50.26;99788.59;6287151;20;3525255;-54
2023/07/15 11:08:40;;;;;;;;;12.50;12.50;;;;;32.34;48.76;99787.88;6314731;20;2810706;-52